createdAt,value
2018-07-05T00:00:46.473Z,24.30
2018-07-05T00:03:26.751Z,24.40
2018-07-05T00:06:07.413Z,24.20
2018-07-05T00:08:47.577Z,24.40
2018-07-05T00:11:28.440Z,24.50
2018-07-05T00:14:09.153Z,24.60
2018-07-05T00:16:49.301Z,24.60
2018-07-05T00:19:29.782Z,24.60
2018-07-05T00:22:10.281Z,24.50
2018-07-05T00:24:50.922Z,24.40
2018-07-05T00:27:31.489Z,24.40
2018-07-05T00:30:11.826Z,24.50
2018-07-05T00:32:52.552Z,24.30
2018-07-05T00:35:33.217Z,24.20
2018-07-05T00:40:47.789Z,24.30
2018-07-05T00:43:28.243Z,24.40
2018-07-05T00:46:08.450Z,24.30
2018-07-05T00:48:49.177Z,24.40
2018-07-05T00:51:29.500Z,24.40
2018-07-05T00:54:09.841Z,24.50
2018-07-05T00:56:50.348Z,24.60
2018-07-05T00:59:30.618Z,24.60
2018-07-05T01:02:11.040Z,24.60
2018-07-05T01:04:51.733Z,24.60
2018-07-05T01:07:31.938Z,24.60
2018-07-05T01:10:12.765Z,24.60
2018-07-05T01:12:53.401Z,24.60
2018-07-05T01:15:33.669Z,24.60
2018-07-05T01:18:14.142Z,24.60
2018-07-05T01:20:54.510Z,24.60
2018-07-05T01:23:35.080Z,24.60
2018-07-05T01:26:15.845Z,24.60
2018-07-05T01:28:56.044Z,24.60
2018-07-05T01:31:36.869Z,24.60
2018-07-05T01:34:17.378Z,24.60
2018-07-05T01:36:58.200Z,24.60
2018-07-05T01:39:38.400Z,24.70
2018-07-05T01:42:18.920Z,24.50
2018-07-05T01:45:00.812Z,24.60
2018-07-05T01:47:41.028Z,24.60
2018-07-05T01:50:21.536Z,24.60
2018-07-05T01:53:02.078Z,24.60
2018-07-05T01:55:42.777Z,24.60
2018-07-05T01:58:23.204Z,24.60
2018-07-05T02:01:03.777Z,24.60
2018-07-05T02:03:44.256Z,24.60
2018-07-05T02:06:24.500Z,24.60
2018-07-05T02:09:05.501Z,24.50
2018-07-05T02:11:45.862Z,24.50
2018-07-05T02:14:26.372Z,24.50
2018-07-05T02:17:06.889Z,24.50
2018-07-05T02:22:22.355Z,24.50
2018-07-05T02:25:02.961Z,24.50
2018-07-05T02:27:43.381Z,24.50
2018-07-05T02:30:23.853Z,24.50
2018-07-05T02:33:04.113Z,24.50
2018-07-05T02:35:44.884Z,24.40
2018-07-05T02:38:25.781Z,24.40
2018-07-05T02:43:41.209Z,24.40
2018-07-05T02:46:22.246Z,24.40
2018-07-05T02:49:02.553Z,24.30
2018-07-05T02:51:42.934Z,24.40
2018-07-05T02:54:23.628Z,24.40
2018-07-05T02:57:03.949Z,24.40
2018-07-05T02:59:44.021Z,24.40
2018-07-05T03:02:24.714Z,24.40
2018-07-05T03:05:05.373Z,24.30
2018-07-05T03:07:45.568Z,24.30
2018-07-05T03:10:25.732Z,24.30
2018-07-05T03:13:06.114Z,24.30
2018-07-05T03:15:46.573Z,24.20
2018-07-05T03:18:27.264Z,24.20
2018-07-05T03:21:07.669Z,24.20
2018-07-05T03:23:47.982Z,24.10
2018-07-05T03:26:28.253Z,24.10
2018-07-05T03:29:08.921Z,24.10
2018-07-05T03:31:49.654Z,24.10
2018-07-05T03:34:30.229Z,24.00
2018-07-05T03:37:10.612Z,24.00
2018-07-05T03:39:50.941Z,24.00
2018-07-05T03:42:31.147Z,23.90
2018-07-05T03:45:11.472Z,24.00
2018-07-05T03:47:51.689Z,23.90
2018-07-05T03:50:31.789Z,24.00
2018-07-05T03:53:12.128Z,24.00
2018-07-05T03:55:52.472Z,24.00
2018-07-05T03:58:32.849Z,24.10
2018-07-05T04:01:13.324Z,24.10
2018-07-05T04:03:53.681Z,24.10
2018-07-05T04:06:34.232Z,24.10
2018-07-05T04:09:14.573Z,24.20
2018-07-05T04:11:55.077Z,24.20
2018-07-05T04:14:35.681Z,24.30
2018-07-05T04:17:16.223Z,24.30
2018-07-05T04:19:56.747Z,24.30
2018-07-05T04:22:37.009Z,24.30
2018-07-05T04:25:17.365Z,24.30
2018-07-05T04:27:57.761Z,24.40
2018-07-05T04:30:38.421Z,24.40
2018-07-05T04:33:18.639Z,24.50
2018-07-05T04:35:59.210Z,24.50
2018-07-05T04:38:39.594Z,24.50
2018-07-05T04:41:19.773Z,24.50
2018-07-05T04:44:00.201Z,24.40
2018-07-05T04:46:40.672Z,24.50
2018-07-05T04:49:22.171Z,24.50
2018-07-05T04:52:02.531Z,24.50
2018-07-05T04:54:42.975Z,24.60
2018-07-05T04:57:23.557Z,24.50
2018-07-05T05:00:04.006Z,24.60
2018-07-05T05:02:44.609Z,24.60
2018-07-05T05:05:25.320Z,24.70
2018-07-05T05:08:05.885Z,24.80
2018-07-05T05:10:46.213Z,24.80
2018-07-05T05:13:26.630Z,24.80
2018-07-05T05:16:07.927Z,24.90
2018-07-05T05:18:48.559Z,25.10
2018-07-05T05:21:35.198Z,25.20
2018-07-05T05:24:15.864Z,25.30
2018-07-05T05:26:56.103Z,25.30
2018-07-05T05:29:36.477Z,25.30
2018-07-05T05:32:17.157Z,25.50
2018-07-05T05:34:58.732Z,25.60
2018-07-05T05:37:39.042Z,25.80
2018-07-05T05:40:19.729Z,25.80
2018-07-05T05:43:00.218Z,25.80
2018-07-05T05:45:40.426Z,25.90
2018-07-05T05:48:21.120Z,26.00
2018-07-05T05:51:02.494Z,26.10
2018-07-05T05:53:43.002Z,26.20
2018-07-05T05:56:23.520Z,26.30
2018-07-05T05:59:04.214Z,26.30
2018-07-05T06:01:44.529Z,26.50
2018-07-05T06:04:25.466Z,26.60
2018-07-05T06:07:05.906Z,26.70
2018-07-05T06:09:46.240Z,26.90
2018-07-05T06:12:26.852Z,26.80
2018-07-05T06:17:42.118Z,27.00
2018-07-05T06:20:22.633Z,27.20
2018-07-05T06:23:04.381Z,27.10
2018-07-05T06:25:44.610Z,27.20
2018-07-05T06:28:27.789Z,27.40
2018-07-05T06:31:08.125Z,27.50
2018-07-05T06:33:48.557Z,27.60
2018-07-05T06:36:28.881Z,27.70
2018-07-05T06:39:09.477Z,27.20
2018-07-05T06:41:55.826Z,27.00
2018-07-05T06:44:38.631Z,27.20
2018-07-05T06:47:19.177Z,27.70
2018-07-05T06:49:59.871Z,27.60
2018-07-05T06:52:41.157Z,27.70
2018-07-05T06:55:21.754Z,28.10
2018-07-05T06:58:02.792Z,28.40
2018-07-05T07:03:17.988Z,27.20
2018-07-05T07:08:34.389Z,27.40
2018-07-05T07:11:15.069Z,27.80
2018-07-05T07:13:55.634Z,28.00
2018-07-05T07:16:36.615Z,28.20
2018-07-05T07:19:17.377Z,28.10
2018-07-05T07:21:57.714Z,28.30
2018-07-05T07:24:38.400Z,28.40
2018-07-05T07:27:19.014Z,28.60
2018-07-05T07:29:59.419Z,28.60
2018-07-05T07:32:41.151Z,28.70
2018-07-05T07:35:21.910Z,28.70
2018-07-05T07:38:02.967Z,28.80
2018-07-05T07:40:43.909Z,28.80
2018-07-05T07:43:13.206Z,29.00
2018-07-05T07:45:42.267Z,28.80
2018-07-05T07:48:10.612Z,29.10
2018-07-05T07:50:38.685Z,29.30
2018-07-05T07:55:35.336Z,29.40
2018-07-05T07:58:03.458Z,29.60
2018-07-05T08:00:32.608Z,29.70
2018-07-05T08:03:00.950Z,29.90
2018-07-05T08:05:29.656Z,29.80
2018-07-05T08:07:58.676Z,29.70
2018-07-05T08:10:27.018Z,29.80
2018-07-05T08:12:54.986Z,29.80
2018-07-05T08:15:23.055Z,30.00
2018-07-05T08:17:52.119Z,30.00
2018-07-05T08:20:20.547Z,30.20
2018-07-05T08:22:48.810Z,30.20
2018-07-05T08:25:16.995Z,30.30
2018-07-05T08:27:45.628Z,30.50
2018-07-05T08:30:13.915Z,30.60
2018-07-05T08:32:42.054Z,29.70
2018-07-05T08:35:10.361Z,28.40
2018-07-05T08:37:38.501Z,28.20
2018-07-05T08:40:06.884Z,29.00
2018-07-05T08:42:35.870Z,29.70
2018-07-05T08:45:04.535Z,29.10
2018-07-05T08:47:36.830Z,29.60
2018-07-05T08:50:05.180Z,30.00
2018-07-05T08:52:33.763Z,30.40
2018-07-05T08:55:01.938Z,30.60
2018-07-05T08:57:30.511Z,30.80
2018-07-05T08:59:59.488Z,30.80
2018-07-05T09:02:27.641Z,31.00
2018-07-05T09:04:57.197Z,30.80
2018-07-05T09:07:27.041Z,30.90
2018-07-05T09:09:55.311Z,30.90
2018-07-05T09:12:23.425Z,29.80
2018-07-05T09:14:51.555Z,29.50
2018-07-05T09:17:19.643Z,29.60
2018-07-05T09:19:48.305Z,29.40
2018-07-05T09:22:16.693Z,29.80
2018-07-05T09:24:45.078Z,29.70
2018-07-05T09:27:13.337Z,29.80
2018-07-05T09:29:41.743Z,29.70
2018-07-05T09:32:09.937Z,29.50
2018-07-05T09:34:47.560Z,29.60
2018-07-05T09:37:17.004Z,30.10
2018-07-05T09:39:45.189Z,30.10
2018-07-05T09:42:13.205Z,29.80
2018-07-05T09:44:41.266Z,29.90
2018-07-05T09:47:09.468Z,30.40
2018-07-05T09:49:37.856Z,30.60
2018-07-05T09:52:06.085Z,30.00
2018-07-05T09:54:34.193Z,30.10
2018-07-05T09:57:02.556Z,30.20
2018-07-05T09:59:30.901Z,30.60
2018-07-05T10:01:58.961Z,30.70
2018-07-05T10:04:27.029Z,30.20
2018-07-05T10:06:55.525Z,30.50
2018-07-05T10:09:26.470Z,30.90
2018-07-05T10:11:56.005Z,30.80
2018-07-05T10:14:24.565Z,31.10
2018-07-05T10:16:53.714Z,30.90
2018-07-05T10:19:22.252Z,30.80
2018-07-05T10:21:51.316Z,30.80
2018-07-05T10:24:20.058Z,30.40
2018-07-05T10:26:48.776Z,29.80
2018-07-05T10:29:29.597Z,29.70
2018-07-05T10:32:10.398Z,29.80
2018-07-05T10:34:38.505Z,30.20
2018-07-05T10:37:06.828Z,29.60
2018-07-05T10:39:35.712Z,29.70
2018-07-05T10:42:16.169Z,29.70
2018-07-05T10:44:56.715Z,29.40
2018-07-05T10:47:37.145Z,30.10
2018-07-05T10:50:17.741Z,30.40
2018-07-05T10:52:57.919Z,30.30
2018-07-05T10:55:38.316Z,30.50
2018-07-05T10:58:18.646Z,30.10
2018-07-05T11:00:59.059Z,29.30
2018-07-05T11:03:39.588Z,28.80
2018-07-05T11:06:20.273Z,28.60
2018-07-05T11:11:35.394Z,29.70
2018-07-05T11:14:15.877Z,29.60
2018-07-05T11:16:56.491Z,29.40
2018-07-05T11:19:36.915Z,29.00
2018-07-05T11:22:17.897Z,28.60
2018-07-05T11:24:58.477Z,28.10
2018-07-05T11:27:38.785Z,28.00
2018-07-05T11:30:20.981Z,28.50
2018-07-05T11:33:01.661Z,28.70
2018-07-05T11:35:42.074Z,28.70
2018-07-05T11:38:23.650Z,28.60
2018-07-05T11:41:04.279Z,28.30
2018-07-05T11:43:45.071Z,28.10
2018-07-05T11:46:25.605Z,28.30
2018-07-05T11:49:07.723Z,28.30
2018-07-05T11:51:48.236Z,28.30
2018-07-05T11:54:29.338Z,28.40
2018-07-05T11:57:11.547Z,28.50
2018-07-05T11:59:52.861Z,28.70
2018-07-05T12:02:33.153Z,28.90
2018-07-05T12:05:13.453Z,29.00
2018-07-05T12:07:53.843Z,29.10
2018-07-05T12:10:34.811Z,28.70
2018-07-05T12:13:16.007Z,28.90
2018-07-05T12:15:56.375Z,28.80
2018-07-05T12:18:37.019Z,29.10
2018-07-05T12:21:17.992Z,29.00
2018-07-05T12:23:59.482Z,29.30
2018-07-05T12:26:40.604Z,29.60
2018-07-05T12:29:21.548Z,29.20
2018-07-05T12:32:02.322Z,29.20
2018-07-05T12:34:43.281Z,28.90
2018-07-05T12:37:25.476Z,28.90
2018-07-05T12:40:05.837Z,29.00
2018-07-05T12:42:48.892Z,29.50
2018-07-05T12:45:30.244Z,29.50
2018-07-05T12:48:11.726Z,29.10
2018-07-05T12:50:52.189Z,29.40
2018-07-05T12:53:33.202Z,29.50
2018-07-05T12:56:15.024Z,29.70
2018-07-05T12:58:55.403Z,30.10
2018-07-05T13:01:36.189Z,29.70
2018-07-05T13:04:17.140Z,29.80
2018-07-05T13:06:57.612Z,29.60
2018-07-05T13:09:41.467Z,29.60
2018-07-05T13:12:23.207Z,29.70
2018-07-05T13:15:04.030Z,30.10
2018-07-05T13:17:44.549Z,30.60
2018-07-05T13:20:25.057Z,30.60
2018-07-05T13:23:05.928Z,30.80
2018-07-05T13:25:46.271Z,30.20
2018-07-05T13:28:26.696Z,29.90
2018-07-05T13:31:07.109Z,30.50
2018-07-05T13:33:47.800Z,30.60
2018-07-05T13:36:28.164Z,29.90
2018-07-05T13:39:09.363Z,29.90
2018-07-05T13:41:49.708Z,30.20
2018-07-05T13:44:30.021Z,30.10
2018-07-05T13:47:12.296Z,30.40
2018-07-05T13:49:55.718Z,30.90
2018-07-05T13:52:37.130Z,30.90
2018-07-05T13:55:20.078Z,30.40
2018-07-05T13:58:00.685Z,30.40
2018-07-05T14:00:41.732Z,30.30
2018-07-05T14:03:22.341Z,30.10
2018-07-05T14:06:05.878Z,30.40
2018-07-05T14:08:46.831Z,30.70
2018-07-05T14:11:27.221Z,30.80
2018-07-05T14:14:08.865Z,30.80
2018-07-05T14:16:49.294Z,30.80
2018-07-05T14:19:29.897Z,31.10
2018-07-05T14:22:14.753Z,30.20
2018-07-05T14:24:55.180Z,29.80
2018-07-05T14:27:36.146Z,30.10
2018-07-05T14:30:17.047Z,29.90
2018-07-05T14:32:58.702Z,30.00
2018-07-05T14:35:39.094Z,30.00
2018-07-05T14:38:23.528Z,29.90
2018-07-05T14:41:04.062Z,29.70
2018-07-05T14:43:44.824Z,29.70
2018-07-05T14:46:25.432Z,29.60
2018-07-05T14:49:06.357Z,29.00
2018-07-05T14:54:21.452Z,29.00
2018-07-05T14:57:01.671Z,29.10
2018-07-05T14:59:41.930Z,29.00
2018-07-05T15:02:22.568Z,29.10
2018-07-05T15:05:03.059Z,29.40
2018-07-05T15:07:43.752Z,29.40
2018-07-05T15:10:24.232Z,29.20
2018-07-05T15:13:05.382Z,29.20
2018-07-05T15:15:45.925Z,29.30
2018-07-05T15:18:26.296Z,29.30
2018-07-05T15:21:06.921Z,29.30
2018-07-05T15:23:47.307Z,29.40
2018-07-05T15:26:27.324Z,29.60
2018-07-05T15:29:07.549Z,29.60
2018-07-05T15:31:48.099Z,29.50
2018-07-05T15:34:29.556Z,29.70
2018-07-05T15:37:10.760Z,29.70
2018-07-05T15:39:52.207Z,29.70
2018-07-05T15:42:32.597Z,29.50
2018-07-05T15:45:13.006Z,29.40
2018-07-05T15:50:29.336Z,28.90
2018-07-05T15:53:10.142Z,28.70
2018-07-05T15:55:50.476Z,28.80
2018-07-05T15:58:31.464Z,28.80
2018-07-05T16:01:12.941Z,28.90
2018-07-05T16:06:28.417Z,28.80
2018-07-05T16:09:09.265Z,28.70
2018-07-05T16:11:50.605Z,29.00
2018-07-05T16:14:31.361Z,29.20
2018-07-05T16:17:11.741Z,29.40
2018-07-05T16:19:52.136Z,29.40
2018-07-05T16:22:32.753Z,29.50
2018-07-05T16:25:13.753Z,29.40
2018-07-05T16:27:54.150Z,29.30
2018-07-05T16:30:34.769Z,29.10
2018-07-05T16:33:15.231Z,29.10
2018-07-05T16:35:55.814Z,29.20
2018-07-05T16:38:36.459Z,29.10
2018-07-05T16:41:17.157Z,29.00
2018-07-05T16:43:57.509Z,29.10
2018-07-05T16:46:38.269Z,29.20
2018-07-05T16:49:18.847Z,29.20
2018-07-05T16:51:59.199Z,29.10
2018-07-05T16:54:39.812Z,29.20
2018-07-05T16:57:20.195Z,29.10
2018-07-05T17:00:01.105Z,29.20
2018-07-05T17:02:43.588Z,29.10
2018-07-05T17:05:25.155Z,29.00
2018-07-05T17:08:06.567Z,29.00
2018-07-05T17:10:47.619Z,29.10
2018-07-05T17:13:29.406Z,29.10
2018-07-05T17:16:10.441Z,29.00
2018-07-05T17:18:51.360Z,29.00
2018-07-05T17:21:32.297Z,29.00
2018-07-05T17:24:13.982Z,28.90
2018-07-05T17:26:54.749Z,28.90
2018-07-05T17:29:36.865Z,28.80
2018-07-05T17:34:55.313Z,28.50
2018-07-05T17:37:36.794Z,28.50
2018-07-05T17:40:18.627Z,28.70
2018-07-05T17:43:00.798Z,28.60
2018-07-05T17:45:41.849Z,28.60
2018-07-05T17:48:24.041Z,28.50
2018-07-05T17:51:06.309Z,28.40
2018-07-05T17:53:51.529Z,28.40
2018-07-05T17:56:34.082Z,28.40
2018-07-05T17:59:15.578Z,28.40
2018-07-05T18:01:57.001Z,28.40
2018-07-05T18:04:37.803Z,28.40
2018-07-05T18:07:18.998Z,28.40
2018-07-05T18:10:00.587Z,28.30
2018-07-05T18:12:41.529Z,28.30
2018-07-05T18:15:22.326Z,28.10
2018-07-05T18:18:03.046Z,28.00
2018-07-05T18:20:43.169Z,27.90
2018-07-05T18:23:23.674Z,27.80
2018-07-05T18:26:04.153Z,27.80
2018-07-05T18:28:44.700Z,27.80
2018-07-05T18:31:25.057Z,27.80
2018-07-05T18:34:05.395Z,27.70
2018-07-05T18:36:45.915Z,27.70
2018-07-05T18:39:26.366Z,27.50
2018-07-05T18:42:07.453Z,27.50
2018-07-05T18:47:21.961Z,27.40
2018-07-05T18:50:02.787Z,27.20
2018-07-05T18:52:43.477Z,27.10
2018-07-05T18:55:23.990Z,27.20
2018-07-05T18:58:05.008Z,27.00
2018-07-05T19:00:45.692Z,27.00
2018-07-05T19:06:15.248Z,27.00
2018-07-05T19:08:55.969Z,26.80
2018-07-05T19:11:36.300Z,26.80
2018-07-05T19:14:16.781Z,26.60
2018-07-05T19:16:57.444Z,26.30
2018-07-05T19:19:38.017Z,26.30
2018-07-05T19:22:18.965Z,26.40
2018-07-05T19:25:00.248Z,26.50
2018-07-05T19:27:40.864Z,26.60
2018-07-05T19:30:21.775Z,26.50
2018-07-05T19:33:02.595Z,26.50
2018-07-05T19:38:19.092Z,26.50
2018-07-05T19:41:00.361Z,26.30
2018-07-05T19:43:41.073Z,26.20
2018-07-05T19:46:22.813Z,26.20
2018-07-05T19:49:03.787Z,26.30
2018-07-05T19:51:44.665Z,26.20
2018-07-05T19:54:26.632Z,26.10
2018-07-05T19:57:07.568Z,25.90
2018-07-05T19:59:48.713Z,25.90
2018-07-05T20:02:29.851Z,26.00
2018-07-05T20:05:10.246Z,26.00
2018-07-05T20:07:51.791Z,25.90
2018-07-05T20:10:33.141Z,25.80
2018-07-05T20:13:14.075Z,25.60
2018-07-05T20:15:54.181Z,25.60
2018-07-05T20:18:35.492Z,25.70
2018-07-05T20:21:16.060Z,25.70
2018-07-05T20:23:58.224Z,25.80
2018-07-05T20:26:39.895Z,25.90
2018-07-05T20:29:21.580Z,25.80
2018-07-05T20:32:02.237Z,25.90
2018-07-05T20:34:43.209Z,25.90
2018-07-05T20:37:24.013Z,25.80
2018-07-05T20:40:05.244Z,25.80
2018-07-05T20:42:45.846Z,25.70
2018-07-05T20:45:27.762Z,25.70
2018-07-05T20:48:15.820Z,25.70
2018-07-05T20:50:58.474Z,25.70
2018-07-05T20:53:39.076Z,25.50
2018-07-05T20:56:19.665Z,25.50
2018-07-05T20:59:01.359Z,25.50
2018-07-05T21:01:42.505Z,25.30
2018-07-05T21:04:23.222Z,25.30
2018-07-05T21:07:03.461Z,25.20
2018-07-05T21:09:43.800Z,25.20
2018-07-05T21:14:59.270Z,25.30
2018-07-05T21:17:39.652Z,25.30
2018-07-05T21:20:20.431Z,25.30
2018-07-05T21:23:00.754Z,25.30
2018-07-05T21:25:41.415Z,25.30
2018-07-05T21:28:21.653Z,25.20
2018-07-05T21:31:02.394Z,25.10
2018-07-05T21:33:42.803Z,25.10
2018-07-05T21:36:23.400Z,25.00
2018-07-05T21:39:04.137Z,25.00
2018-07-05T21:41:44.405Z,25.10
2018-07-05T21:44:24.963Z,25.10
2018-07-05T21:47:05.456Z,25.00
2018-07-05T21:49:46.342Z,25.00
2018-07-05T21:52:26.801Z,25.00
2018-07-05T21:55:07.152Z,25.00
2018-07-05T22:00:23.351Z,25.00
2018-07-05T22:03:04.017Z,25.00
2018-07-05T22:05:44.297Z,25.00
2018-07-05T22:08:24.636Z,25.00
2018-07-05T22:11:04.952Z,25.00
2018-07-05T22:13:45.369Z,25.00
2018-07-05T22:19:05.573Z,24.90
2018-07-05T22:21:51.430Z,24.90
2018-07-05T22:24:37.318Z,24.90
2018-07-05T22:27:23.209Z,24.90
2018-07-05T22:30:08.790Z,24.90
2018-07-05T22:32:49.495Z,24.90
2018-07-05T22:35:30.021Z,24.90
2018-07-05T22:38:10.417Z,24.90
2018-07-05T22:40:50.777Z,24.90
2018-07-05T22:46:05.603Z,24.90
2018-07-05T22:48:46.113Z,24.90
2018-07-05T22:51:26.305Z,24.90
2018-07-05T22:54:06.395Z,24.90
2018-07-05T22:56:46.796Z,24.90
2018-07-05T22:59:27.244Z,24.90
2018-07-05T23:02:07.752Z,24.80
2018-07-05T23:04:48.277Z,24.80
2018-07-05T23:07:28.792Z,24.80
2018-07-05T23:10:09.173Z,24.80
2018-07-05T23:12:49.493Z,24.80
2018-07-05T23:15:30.233Z,24.70
2018-07-05T23:20:45.183Z,24.70
2018-07-05T23:23:25.868Z,24.70
2018-07-05T23:26:06.566Z,24.70
2018-07-05T23:28:47.057Z,24.70
2018-07-05T23:31:27.566Z,24.70
2018-07-05T23:34:08.212Z,24.70
2018-07-05T23:36:48.596Z,24.70
2018-07-05T23:39:29.261Z,24.70
2018-07-05T23:42:09.928Z,24.60
2018-07-05T23:44:50.523Z,24.60
2018-07-05T23:47:31.170Z,24.60
2018-07-05T23:50:11.497Z,24.60
2018-07-05T23:52:51.982Z,24.60
2018-07-05T23:55:32.525Z,24.60
2018-07-05T23:58:12.987Z,24.60
